createdAt,value
2017-12-26T00:00:18.011Z,0.97
2017-12-26T00:02:45.447Z,2.70
2017-12-26T00:05:12.911Z,1.97
2017-12-26T00:07:40.346Z,2.83
2017-12-26T00:10:08.547Z,1.90
2017-12-26T00:12:36.029Z,3.13
2017-12-26T00:15:03.471Z,3.30
2017-12-26T00:17:30.926Z,1.53
2017-12-26T00:19:58.382Z,2.93
2017-12-26T00:22:25.822Z,2.07
2017-12-26T00:24:53.256Z,1.90
2017-12-26T00:27:21.463Z,2.40
2017-12-26T00:29:48.914Z,2.13
2017-12-26T00:32:16.354Z,2.07
2017-12-26T00:34:44.566Z,2.10
2017-12-26T00:37:12.055Z,1.97
2017-12-26T00:39:39.487Z,2.47
2017-12-26T00:42:06.938Z,1.90
2017-12-26T00:44:34.371Z,2.10
2017-12-26T00:47:01.814Z,1.87
2017-12-26T00:49:30.023Z,3.30
2017-12-26T00:51:57.471Z,1.53
2017-12-26T00:54:24.911Z,2.73
2017-12-26T00:56:52.362Z,1.70
2017-12-26T00:59:20.572Z,2.07
2017-12-26T01:01:48.029Z,1.77
2017-12-26T01:04:15.439Z,2.67
2017-12-26T01:06:43.654Z,2.20
2017-12-26T01:09:11.104Z,0.90
2017-12-26T01:11:38.547Z,4.30
2017-12-26T01:14:05.985Z,2.00
2017-12-26T01:16:34.210Z,2.50
2017-12-26T01:19:01.625Z,3.03
2017-12-26T01:21:29.835Z,4.23
2017-12-26T01:23:57.326Z,2.93
2017-12-26T01:26:24.764Z,3.43
2017-12-26T01:28:52.191Z,1.40
2017-12-26T01:31:19.626Z,2.00
2017-12-26T01:33:47.842Z,2.13
2017-12-26T01:36:15.312Z,1.60
2017-12-26T01:38:42.767Z,2.23
2017-12-26T01:41:10.239Z,2.63
2017-12-26T01:43:37.679Z,1.80
2017-12-26T01:46:16.932Z,2.17
2017-12-26T01:48:44.378Z,1.00
2017-12-26T01:51:11.836Z,2.07
2017-12-26T01:53:39.272Z,15.50
2017-12-26T01:56:06.707Z,2.70
2017-12-26T01:58:34.158Z,3.27
2017-12-26T02:01:01.603Z,2.20
2017-12-26T02:03:29.834Z,2.80
2017-12-26T02:05:57.286Z,1.77
2017-12-26T02:08:24.761Z,1.50
2017-12-26T02:10:52.186Z,2.10
2017-12-26T02:13:19.628Z,1.93
2017-12-26T02:15:47.055Z,4.10
2017-12-26T02:18:15.263Z,2.20
2017-12-26T02:20:42.690Z,2.67
2017-12-26T02:23:10.914Z,1.43
2017-12-26T02:25:38.364Z,2.10
2017-12-26T02:28:05.814Z,2.70
2017-12-26T02:30:33.243Z,2.20
2017-12-26T02:33:01.457Z,3.17
2017-12-26T02:35:28.883Z,1.40
2017-12-26T02:37:56.315Z,2.50
2017-12-26T02:40:23.782Z,3.50
2017-12-26T02:42:52.011Z,1.40
2017-12-26T02:45:19.458Z,1.43
2017-12-26T02:47:46.939Z,0.87
2017-12-26T02:50:14.379Z,1.80
2017-12-26T02:52:41.819Z,2.93
2017-12-26T02:55:09.295Z,43.70
2017-12-26T02:57:36.759Z,56.10
2017-12-26T03:00:04.215Z,68.07
2017-12-26T03:02:31.675Z,1.93
2017-12-26T03:04:59.142Z,2.30
2017-12-26T03:07:26.594Z,5.77
2017-12-26T03:09:54.055Z,1.33
2017-12-26T03:12:21.501Z,2.23
2017-12-26T03:14:48.950Z,1.13
2017-12-26T03:17:16.419Z,1.70
2017-12-26T03:19:43.852Z,2.47
2017-12-26T03:22:11.291Z,1.50
2017-12-26T03:24:38.726Z,0.80
2017-12-26T03:27:06.941Z,52.67
2017-12-26T03:29:34.390Z,73.40
2017-12-26T03:32:01.843Z,2.33
2017-12-26T03:34:29.278Z,2.57
2017-12-26T03:36:57.505Z,3.50
2017-12-26T03:39:24.951Z,3.67
2017-12-26T03:41:52.387Z,1.67
2017-12-26T03:44:19.831Z,2.20
2017-12-26T03:46:47.283Z,1.83
2017-12-26T03:49:14.735Z,2.57
2017-12-26T03:51:42.933Z,3.33
2017-12-26T03:54:10.401Z,2.40
2017-12-26T03:56:37.862Z,1.77
2017-12-26T03:59:05.300Z,0.90
2017-12-26T04:01:32.730Z,2.33
2017-12-26T04:04:00.956Z,1.40
2017-12-26T04:06:28.400Z,1.83
2017-12-26T04:08:55.853Z,4.30
2017-12-26T04:11:23.286Z,2.70
2017-12-26T04:13:51.503Z,1.43
2017-12-26T04:16:18.941Z,1.50
2017-12-26T04:18:46.380Z,1.13
2017-12-26T04:21:13.807Z,2.73
2017-12-26T04:23:41.255Z,1.27
2017-12-26T04:26:08.687Z,1.87
2017-12-26T04:28:36.155Z,1.80
2017-12-26T04:31:03.750Z,1.30
2017-12-26T04:33:31.183Z,3.30
2017-12-26T04:35:58.627Z,1.80
2017-12-26T04:38:26.068Z,2.80
2017-12-26T04:40:53.503Z,5.63
2017-12-26T04:43:20.970Z,2.27
2017-12-26T04:45:48.388Z,1.77
2017-12-26T04:48:16.619Z,2.50
2017-12-26T04:50:44.087Z,1.53
2017-12-26T04:53:11.532Z,3.10
2017-12-26T04:55:38.995Z,2.33
2017-12-26T04:58:06.450Z,101.27
2017-12-26T05:00:33.906Z,91.57
2017-12-26T05:03:01.371Z,75.30
2017-12-26T05:05:28.827Z,1.80
2017-12-26T05:07:56.285Z,2.80
2017-12-26T05:10:23.730Z,3.30
2017-12-26T05:12:51.192Z,2.23
2017-12-26T05:15:18.643Z,2.70
2017-12-26T05:17:46.091Z,2.40
2017-12-26T05:20:13.524Z,2.40
2017-12-26T05:22:40.993Z,3.83
2017-12-26T05:25:08.446Z,4.20
2017-12-26T05:27:35.883Z,3.00
2017-12-26T05:30:04.108Z,2.30
2017-12-26T05:32:31.561Z,2.97
2017-12-26T05:34:58.996Z,3.03
2017-12-26T05:37:26.423Z,3.17
2017-12-26T05:39:54.647Z,1.73
2017-12-26T05:42:22.078Z,4.93
2017-12-26T05:44:49.631Z,2.00
2017-12-26T05:47:17.068Z,3.10
2017-12-26T05:49:45.275Z,3.63
2017-12-26T05:52:12.732Z,72.10
2017-12-26T05:54:40.183Z,121.80
2017-12-26T05:57:07.615Z,2.03
2017-12-26T05:59:35.863Z,99.33
2017-12-26T06:02:03.343Z,140.87
2017-12-26T06:04:31.565Z,148.70
2017-12-26T06:06:59.019Z,130.60
2017-12-26T06:09:26.463Z,9.83
2017-12-26T06:11:53.903Z,73.70
2017-12-26T06:14:22.121Z,119.30
2017-12-26T06:16:49.564Z,30.43
2017-12-26T06:19:17.012Z,12.77
2017-12-26T06:21:44.466Z,10.23
2017-12-26T06:24:12.676Z,4.70
2017-12-26T06:26:40.100Z,2.97
2017-12-26T06:29:07.583Z,1.67
2017-12-26T06:31:35.032Z,2.00
2017-12-26T06:34:02.467Z,1.57
2017-12-26T06:36:29.907Z,4.43
2017-12-26T06:38:58.134Z,2.20
2017-12-26T06:41:25.568Z,2.27
2017-12-26T06:43:53.195Z,2.57
2017-12-26T06:46:21.390Z,3.70
2017-12-26T06:48:48.825Z,2.70
2017-12-26T06:51:17.018Z,5.20
2017-12-26T06:53:44.459Z,2.43
2017-12-26T06:56:12.651Z,2.00
2017-12-26T06:58:40.091Z,1.83
2017-12-26T07:01:08.289Z,1.93
2017-12-26T07:03:35.738Z,1.43
2017-12-26T07:06:03.183Z,45.03
2017-12-26T07:08:31.385Z,5.00
2017-12-26T07:10:58.826Z,91.67
2017-12-26T07:13:26.306Z,1.90
2017-12-26T07:15:53.739Z,1.93
2017-12-26T07:18:21.179Z,1.80
2017-12-26T07:20:55.047Z,2.87
2017-12-26T07:23:22.491Z,2.87
2017-12-26T07:25:49.938Z,1.80
2017-12-26T07:28:17.406Z,2.83
2017-12-26T07:30:44.827Z,2.20
2017-12-26T07:33:12.495Z,3.53
2017-12-26T07:35:39.922Z,2.43
2017-12-26T07:38:08.148Z,3.60
2017-12-26T07:40:35.607Z,2.47
2017-12-26T07:43:03.050Z,16.93
2017-12-26T07:45:30.482Z,2.33
2017-12-26T07:47:58.703Z,2.13
2017-12-26T07:50:26.146Z,2.93
2017-12-26T07:52:53.579Z,1.60
2017-12-26T07:55:21.023Z,3.50
2017-12-26T07:57:49.215Z,3.07
2017-12-26T08:00:16.669Z,2.40
2017-12-26T08:02:44.099Z,3.73
2017-12-26T08:05:12.314Z,2.97
2017-12-26T08:07:39.935Z,3.97
2017-12-26T08:10:08.145Z,2.20
2017-12-26T08:12:35.574Z,3.37
2017-12-26T08:15:03.051Z,2.40
2017-12-26T08:17:30.485Z,3.33
2017-12-26T08:19:58.698Z,3.57
2017-12-26T08:22:26.370Z,3.30
2017-12-26T08:24:53.851Z,7.80
2017-12-26T08:27:21.289Z,1.73
2017-12-26T08:29:48.746Z,2.90
2017-12-26T08:32:16.178Z,2.27
2017-12-26T08:34:43.612Z,1.73
2017-12-26T08:37:11.807Z,2.97
2017-12-26T08:39:39.264Z,2.87
2017-12-26T08:42:06.695Z,2.37
2017-12-26T08:44:34.939Z,2.20
2017-12-26T08:47:02.389Z,3.37
2017-12-26T08:49:29.830Z,2.37
2017-12-26T08:51:57.263Z,2.07
2017-12-26T08:54:24.707Z,2.30
2017-12-26T08:56:52.905Z,5.07
2017-12-26T08:59:20.343Z,2.43
2017-12-26T09:01:47.779Z,2.83
2017-12-26T09:04:15.983Z,4.33
2017-12-26T09:06:43.463Z,3.13
2017-12-26T09:09:11.650Z,2.07
2017-12-26T09:11:39.082Z,2.40
2017-12-26T09:14:06.555Z,2.17
2017-12-26T09:16:34.003Z,1.63
2017-12-26T09:19:01.448Z,1.80
2017-12-26T09:21:28.879Z,2.53
2017-12-26T09:23:57.089Z,2.63
2017-12-26T09:26:24.523Z,2.83
2017-12-26T09:28:51.967Z,1.43
2017-12-26T09:31:20.175Z,2.43
2017-12-26T09:33:47.611Z,3.03
2017-12-26T09:36:15.835Z,1.90
2017-12-26T09:38:43.284Z,1.60
2017-12-26T09:41:10.716Z,1.67
2017-12-26T09:43:38.146Z,1.90
2017-12-26T09:46:06.374Z,1.53
2017-12-26T09:48:33.829Z,1.20
2017-12-26T09:51:01.275Z,1.73
2017-12-26T09:53:28.707Z,1.60
2017-12-26T09:55:56.338Z,1.77
2017-12-26T09:58:24.539Z,2.43
2017-12-26T10:00:51.978Z,1.37
2017-12-26T10:03:20.176Z,1.40
2017-12-26T10:05:47.610Z,1.53
2017-12-26T10:08:15.834Z,1.33
2017-12-26T10:10:43.300Z,1.10
2017-12-26T10:13:10.731Z,2.10
2017-12-26T10:15:38.166Z,1.70
2017-12-26T10:18:06.363Z,1.07
2017-12-26T10:20:33.803Z,1.17
2017-12-26T10:23:01.235Z,1.10
2017-12-26T10:25:29.463Z,2.40
2017-12-26T10:27:56.884Z,2.10
2017-12-26T10:30:24.329Z,2.73
2017-12-26T10:32:51.790Z,2.20
2017-12-26T10:35:20.008Z,2.00
2017-12-26T10:37:47.464Z,2.10
2017-12-26T10:40:14.955Z,1.57
2017-12-26T10:42:42.393Z,4.07
2017-12-26T10:45:09.850Z,2.20
2017-12-26T10:47:37.302Z,1.73
2017-12-26T10:50:04.760Z,2.57
2017-12-26T10:52:32.208Z,2.17
2017-12-26T10:54:59.664Z,2.60
2017-12-26T10:57:27.141Z,2.40
2017-12-26T10:59:54.598Z,3.33
2017-12-26T11:02:22.035Z,2.97
2017-12-26T11:04:49.498Z,2.80
2017-12-26T11:07:16.940Z,2.40
2017-12-26T11:09:44.400Z,1.87
2017-12-26T11:12:11.831Z,3.70
2017-12-26T11:14:39.288Z,3.07
2017-12-26T11:17:07.651Z,3.07
2017-12-26T11:19:35.852Z,3.27
2017-12-26T11:22:03.288Z,2.13
2017-12-26T11:24:31.504Z,2.00
2017-12-26T11:26:58.962Z,2.27
2017-12-26T11:29:26.413Z,2.03
2017-12-26T11:31:53.866Z,1.63
2017-12-26T11:34:21.305Z,1.80
2017-12-26T11:36:48.743Z,2.03
2017-12-26T11:39:16.973Z,2.10
2017-12-26T11:41:44.420Z,1.40
2017-12-26T11:44:11.848Z,2.20
2017-12-26T11:46:39.288Z,2.60
2017-12-26T11:49:07.511Z,2.03
2017-12-26T11:51:34.963Z,1.83
2017-12-26T11:54:02.388Z,2.30
2017-12-26T11:56:29.828Z,2.20
2017-12-26T11:58:58.032Z,0.90
2017-12-26T12:01:25.515Z,3.17
2017-12-26T12:03:52.936Z,2.83
2017-12-26T12:06:20.476Z,3.40
2017-12-26T12:08:48.708Z,3.20
2017-12-26T12:11:16.174Z,2.47
2017-12-26T12:13:43.606Z,2.70
2017-12-26T12:16:11.064Z,3.73
2017-12-26T12:18:38.548Z,2.80
2017-12-26T12:21:06.000Z,2.00
2017-12-26T12:23:33.449Z,3.60
2017-12-26T12:26:00.941Z,3.53
2017-12-26T12:28:28.376Z,2.10
2017-12-26T12:30:55.825Z,2.70
2017-12-26T12:33:23.261Z,2.57
2017-12-26T12:35:50.722Z,2.63
2017-12-26T12:38:18.165Z,3.00
2017-12-26T12:40:45.804Z,1.83
2017-12-26T12:43:14.012Z,2.80
2017-12-26T12:45:41.470Z,1.90
2017-12-26T12:48:08.908Z,2.83
2017-12-26T12:50:36.368Z,1.90
2017-12-26T12:53:03.803Z,1.70
2017-12-26T12:55:31.294Z,3.93
2017-12-26T12:57:58.728Z,1.90
2017-12-26T13:00:26.168Z,2.40
2017-12-26T13:02:54.401Z,1.40
2017-12-26T13:05:21.848Z,1.80
2017-12-26T13:07:49.292Z,2.07
2017-12-26T13:10:16.738Z,1.60
2017-12-26T13:12:44.170Z,1.63
2017-12-26T13:15:12.402Z,1.43
2017-12-26T13:17:39.847Z,2.40
2017-12-26T13:20:08.056Z,1.13
2017-12-26T13:22:35.500Z,1.13
2017-12-26T13:25:02.961Z,1.80
2017-12-26T13:27:30.386Z,1.83
2017-12-26T13:29:57.831Z,1.63
2017-12-26T13:32:25.284Z,1.20
2017-12-26T13:34:52.756Z,1.37
2017-12-26T13:37:20.203Z,2.50
2017-12-26T13:39:47.643Z,1.70
2017-12-26T13:42:15.870Z,1.70
2017-12-26T13:44:43.319Z,1.83
2017-12-26T13:47:10.760Z,1.70
2017-12-26T13:49:38.230Z,1.60
2017-12-26T13:52:05.691Z,1.77
2017-12-26T13:54:33.119Z,1.20
2017-12-26T13:57:00.563Z,1.23
2017-12-26T13:59:27.999Z,1.83
2017-12-26T14:01:56.229Z,1.13
2017-12-26T14:04:23.669Z,1.50
2017-12-26T14:06:51.103Z,1.10
2017-12-26T14:09:19.459Z,1.00
2017-12-26T14:11:46.904Z,1.43
2017-12-26T14:14:14.355Z,1.53
2017-12-26T14:16:41.798Z,1.57
2017-12-26T14:19:09.262Z,1.70
2017-12-26T14:21:36.707Z,1.47
2017-12-26T14:24:04.171Z,1.10
2017-12-26T14:26:31.618Z,2.60
2017-12-26T14:28:59.091Z,1.53
2017-12-26T14:31:26.568Z,1.70
2017-12-26T14:33:54.005Z,1.60
2017-12-26T14:36:21.448Z,2.07
2017-12-26T14:38:48.896Z,1.90
2017-12-26T14:41:16.345Z,1.83
2017-12-26T14:43:43.802Z,1.20
2017-12-26T14:46:11.991Z,2.60
2017-12-26T14:48:39.454Z,2.53
2017-12-26T14:51:06.900Z,1.80
2017-12-26T14:53:34.367Z,1.70
2017-12-26T14:56:01.830Z,1.83
2017-12-26T14:58:29.268Z,1.93
2017-12-26T15:00:56.752Z,1.27
2017-12-26T15:03:24.218Z,1.57
2017-12-26T15:05:51.668Z,1.43
2017-12-26T15:08:19.131Z,2.20
2017-12-26T15:10:46.578Z,2.10
2017-12-26T15:13:14.023Z,1.63
2017-12-26T15:15:41.467Z,1.77
2017-12-26T15:18:08.903Z,1.13
2017-12-26T15:20:36.359Z,1.57
2017-12-26T15:23:03.800Z,1.93
2017-12-26T15:25:32.022Z,1.90
2017-12-26T15:27:59.471Z,1.33
2017-12-26T15:30:26.920Z,1.57
2017-12-26T15:32:54.355Z,1.87
2017-12-26T15:35:22.575Z,1.50
2017-12-26T15:37:50.075Z,2.60
2017-12-26T15:40:18.318Z,1.60
2017-12-26T15:42:45.774Z,1.53
2017-12-26T15:45:13.207Z,1.73
2017-12-26T15:47:40.647Z,1.60
2017-12-26T15:50:08.078Z,2.40
2017-12-26T15:52:35.925Z,1.30
2017-12-26T15:55:03.346Z,1.73
2017-12-26T15:57:30.832Z,1.53
2017-12-26T15:59:58.268Z,1.60
2017-12-26T16:02:25.890Z,2.27
2017-12-26T16:04:53.342Z,1.93
2017-12-26T16:07:21.535Z,1.50
2017-12-26T16:09:48.979Z,1.83
2017-12-26T16:12:17.189Z,2.77
2017-12-26T16:14:44.633Z,2.70
2017-12-26T16:17:12.083Z,2.13
2017-12-26T16:19:39.533Z,1.10
2017-12-26T16:22:06.984Z,2.07
2017-12-26T16:24:34.455Z,2.37
2017-12-26T16:27:02.662Z,2.80
2017-12-26T16:29:30.100Z,1.93
2017-12-26T16:31:57.560Z,3.03
2017-12-26T16:34:24.999Z,1.10
2017-12-26T16:36:52.439Z,2.50
2017-12-26T16:39:20.658Z,1.77
2017-12-26T16:41:48.105Z,2.33
2017-12-26T16:44:15.552Z,2.60
2017-12-26T16:46:43.005Z,2.93
2017-12-26T16:49:10.437Z,7.33
2017-12-26T16:51:38.647Z,1.90
2017-12-26T16:54:06.083Z,1.73
2017-12-26T16:56:33.525Z,3.27
2017-12-26T16:59:01.737Z,1.93
2017-12-26T17:01:29.190Z,1.57
2017-12-26T17:03:56.621Z,2.13
2017-12-26T17:06:24.062Z,1.73
2017-12-26T17:08:52.456Z,2.27
2017-12-26T17:11:20.658Z,2.70
2017-12-26T17:13:48.103Z,2.17
2017-12-26T17:16:15.567Z,2.30
2017-12-26T17:18:43.021Z,2.37
2017-12-26T17:21:10.475Z,2.70
2017-12-26T17:23:37.937Z,2.20
2017-12-26T17:26:05.387Z,1.90
2017-12-26T17:28:32.814Z,1.43
2017-12-26T17:31:01.059Z,7.63
2017-12-26T17:33:28.542Z,5.17
2017-12-26T17:35:55.980Z,1.30
2017-12-26T17:38:23.410Z,1.70
2017-12-26T17:40:50.875Z,1.83
2017-12-26T17:43:18.331Z,1.93
2017-12-26T17:45:45.775Z,1.13
2017-12-26T17:48:13.225Z,1.17
2017-12-26T17:50:40.670Z,1.13
2017-12-26T17:53:08.120Z,1.10
2017-12-26T17:55:35.554Z,1.20
2017-12-26T17:58:03.029Z,3.23
2017-12-26T18:00:31.227Z,1.20
2017-12-26T18:02:58.703Z,1.00
2017-12-26T18:05:27.315Z,2.20
2017-12-26T18:07:54.751Z,1.30
2017-12-26T18:10:22.202Z,1.90
2017-12-26T18:12:49.650Z,1.60
2017-12-26T18:15:17.086Z,1.80
2017-12-26T18:17:44.538Z,1.77
2017-12-26T18:20:12.755Z,1.70
2017-12-26T18:22:40.199Z,1.70
2017-12-26T18:25:07.656Z,1.33
2017-12-26T18:27:35.123Z,1.20
2017-12-26T18:30:02.586Z,1.40
2017-12-26T18:32:30.047Z,1.00
2017-12-26T18:34:57.488Z,2.20
2017-12-26T18:37:24.942Z,1.57
2017-12-26T18:39:52.397Z,1.57
2017-12-26T18:42:19.854Z,2.17
2017-12-26T18:44:47.302Z,1.70
2017-12-26T18:47:14.746Z,2.03
2017-12-26T18:49:42.186Z,1.57
2017-12-26T18:52:10.404Z,2.40
2017-12-26T18:54:37.834Z,1.57
2017-12-26T18:57:05.279Z,1.33
2017-12-26T18:59:32.710Z,0.80
2017-12-26T19:02:00.152Z,1.70
2017-12-26T19:04:27.607Z,1.70
2017-12-26T19:06:55.050Z,1.63
2017-12-26T19:09:22.482Z,2.30
2017-12-26T19:11:49.935Z,1.30
2017-12-26T19:14:17.355Z,1.10
2017-12-26T19:16:45.563Z,0.93
2017-12-26T19:19:13.774Z,1.10
2017-12-26T19:21:41.218Z,0.90
2017-12-26T19:24:08.649Z,1.33
2017-12-26T19:26:36.121Z,1.20
2017-12-26T19:29:03.560Z,1.63
2017-12-26T19:31:31.014Z,1.60
2017-12-26T19:33:58.450Z,1.40
2017-12-26T19:36:26.683Z,1.17
2017-12-26T19:38:54.146Z,2.20
2017-12-26T19:41:21.586Z,1.40
2017-12-26T19:43:49.070Z,2.83
2017-12-26T19:46:16.502Z,1.10
2017-12-26T19:48:43.952Z,0.90
2017-12-26T19:51:11.390Z,13.97
2017-12-26T19:53:38.866Z,0.90
2017-12-26T19:56:06.294Z,1.00
2017-12-26T19:58:33.736Z,2.10
2017-12-26T20:01:01.954Z,0.90
2017-12-26T20:03:29.407Z,1.10
2017-12-26T20:05:56.841Z,1.50
2017-12-26T20:08:24.321Z,1.13
2017-12-26T20:10:51.766Z,1.20
2017-12-26T20:13:19.226Z,1.07
2017-12-26T20:15:46.692Z,1.27
2017-12-26T20:18:14.150Z,1.60
2017-12-26T20:20:41.582Z,0.70
2017-12-26T20:23:09.810Z,1.80
2017-12-26T20:25:37.245Z,1.40
2017-12-26T20:28:10.249Z,0.90
2017-12-26T20:30:37.689Z,1.10
2017-12-26T20:33:05.130Z,2.33
2017-12-26T20:35:32.568Z,1.27
2017-12-26T20:38:00.803Z,1.50
2017-12-26T20:40:28.257Z,1.93
2017-12-26T20:42:55.696Z,0.80
2017-12-26T20:45:23.167Z,1.30
2017-12-26T20:47:50.622Z,1.97
2017-12-26T20:50:18.078Z,1.23
2017-12-26T20:52:45.542Z,1.27
2017-12-26T20:55:12.990Z,1.03
2017-12-26T20:57:40.463Z,3.03
2017-12-26T21:00:07.897Z,1.10
2017-12-26T21:02:35.347Z,1.40
2017-12-26T21:05:02.783Z,1.27
2017-12-26T21:07:30.234Z,0.90
2017-12-26T21:09:57.670Z,1.07
2017-12-26T21:12:25.878Z,0.93
2017-12-26T21:14:53.302Z,1.20
2017-12-26T21:17:21.530Z,1.73
2017-12-26T21:19:48.962Z,1.60
2017-12-26T21:22:16.407Z,1.07
2017-12-26T21:24:44.610Z,1.20
2017-12-26T21:27:12.074Z,0.90
2017-12-26T21:29:39.521Z,2.77
2017-12-26T21:32:06.954Z,1.00
2017-12-26T21:34:34.394Z,3.43
2017-12-26T21:37:02.612Z,0.93
2017-12-26T21:39:30.060Z,1.00
2017-12-26T21:41:57.498Z,1.10
2017-12-26T21:44:24.937Z,1.17
2017-12-26T21:46:53.167Z,0.90
2017-12-26T21:49:20.671Z,1.03
2017-12-26T21:51:48.098Z,1.47
2017-12-26T21:54:15.594Z,1.07
2017-12-26T21:56:43.110Z,0.90
2017-12-26T21:59:10.555Z,1.10
2017-12-26T22:01:38.003Z,1.10
2017-12-26T22:04:05.498Z,1.10
2017-12-26T22:06:33.248Z,1.87
2017-12-26T22:09:00.914Z,1.50
2017-12-26T22:11:28.409Z,2.10
2017-12-26T22:13:55.838Z,2.03
2017-12-26T22:16:23.390Z,1.17
2017-12-26T22:18:50.842Z,1.70
2017-12-26T22:21:18.287Z,1.83
2017-12-26T22:23:45.746Z,1.10
2017-12-26T22:26:13.195Z,1.63
2017-12-26T22:28:40.643Z,1.37
2017-12-26T22:31:08.083Z,1.30
2017-12-26T22:33:36.750Z,0.90
2017-12-26T22:36:04.951Z,1.40
2017-12-26T22:38:32.386Z,2.30
2017-12-26T22:40:59.851Z,1.70
2017-12-26T22:43:28.055Z,2.00
2017-12-26T22:45:55.511Z,1.33
2017-12-26T22:48:22.958Z,1.40
2017-12-26T22:50:50.467Z,1.20
2017-12-26T22:53:17.934Z,1.10
2017-12-26T22:55:46.147Z,1.03
2017-12-26T22:58:13.604Z,1.60
2017-12-26T23:00:41.034Z,1.67
2017-12-26T23:03:09.242Z,1.07
2017-12-26T23:05:36.677Z,0.83
2017-12-26T23:08:04.127Z,0.80
2017-12-26T23:10:31.746Z,1.53
2017-12-26T23:12:59.378Z,1.20
2017-12-26T23:15:32.660Z,1.20
2017-12-26T23:18:05.859Z,1.43
2017-12-26T23:20:39.006Z,1.30
2017-12-26T23:23:12.840Z,1.97
2017-12-26T23:25:46.967Z,1.20
2017-12-26T23:28:19.974Z,1.27
2017-12-26T23:30:53.314Z,0.70
2017-12-26T23:33:27.229Z,1.30
2017-12-26T23:36:01.011Z,1.10
2017-12-26T23:38:34.304Z,1.40
2017-12-26T23:41:07.504Z,0.90
2017-12-26T23:43:41.311Z,1.07
2017-12-26T23:46:14.313Z,1.23
2017-12-26T23:48:48.214Z,1.47
2017-12-26T23:51:22.118Z,1.80
2017-12-26T23:53:56.020Z,1.33
2017-12-26T23:56:29.362Z,1.10
2017-12-26T23:59:02.539Z,1.20
